createdAt,value
2018-06-08T00:00:15.496Z,0
2018-06-08T00:01:17.163Z,0
2018-06-08T00:02:18.813Z,0
2018-06-08T00:03:20.467Z,0
2018-06-08T00:04:22.130Z,0
2018-06-08T00:05:23.794Z,0
2018-06-08T00:06:25.447Z,0
2018-06-08T00:07:27.103Z,0
2018-06-08T00:08:28.768Z,0
2018-06-08T00:09:30.413Z,0
2018-06-08T00:10:32.072Z,0
2018-06-08T00:11:33.726Z,0
2018-06-08T00:12:35.381Z,0
2018-06-08T00:13:37.044Z,0
2018-06-08T00:14:38.735Z,0
2018-06-08T00:15:40.399Z,0
2018-06-08T00:16:42.077Z,0
2018-06-08T00:17:43.724Z,0
2018-06-08T00:18:45.384Z,0
2018-06-08T00:19:47.040Z,0
2018-06-08T00:20:48.694Z,0
2018-06-08T00:21:50.361Z,0
2018-06-08T00:22:52.026Z,0
2018-06-08T00:23:53.701Z,0
2018-06-08T00:24:55.348Z,0
2018-06-08T00:25:57.010Z,0
2018-06-08T00:26:58.684Z,0
2018-06-08T00:28:00.337Z,0
2018-06-08T00:29:01.996Z,0
2018-06-08T00:30:03.650Z,0
2018-06-08T00:31:05.312Z,0
2018-06-08T00:32:06.983Z,0
2018-06-08T00:33:08.642Z,0
2018-06-08T00:34:10.302Z,0
2018-06-08T00:35:12.007Z,0
2018-06-08T00:36:13.674Z,0
2018-06-08T00:37:15.332Z,0
2018-06-08T00:38:17.043Z,0
2018-06-08T00:39:18.700Z,0
2018-06-08T00:40:20.355Z,0
2018-06-08T00:41:22.008Z,0
2018-06-08T00:42:23.661Z,0
2018-06-08T00:43:25.340Z,0
2018-06-08T00:44:26.997Z,0
2018-06-08T00:45:28.659Z,0
2018-06-08T00:46:30.308Z,0
2018-06-08T00:47:31.975Z,0
2018-06-08T00:48:33.628Z,0
2018-06-08T00:49:35.288Z,0
2018-06-08T00:50:36.940Z,0
2018-06-08T00:51:38.618Z,0
2018-06-08T00:52:40.293Z,0
2018-06-08T00:53:41.956Z,0
2018-06-08T00:54:43.616Z,0
2018-06-08T00:55:45.276Z,0
2018-06-08T00:56:46.926Z,0
2018-06-08T00:57:48.582Z,0
2018-06-08T00:58:50.248Z,0
2018-06-08T00:59:51.906Z,0
2018-06-08T01:00:53.561Z,0
2018-06-08T01:01:55.224Z,0
2018-06-08T01:02:56.865Z,0
2018-06-08T01:03:58.556Z,0
2018-06-08T01:05:00.235Z,0
2018-06-08T01:06:01.908Z,0
2018-06-08T01:07:03.552Z,0
2018-06-08T01:08:05.209Z,0
2018-06-08T01:09:06.862Z,0
2018-06-08T01:10:08.535Z,0
2018-06-08T01:11:10.178Z,0
2018-06-08T01:12:11.832Z,0
2018-06-08T01:13:13.485Z,0
2018-06-08T01:14:15.138Z,0
2018-06-08T01:15:16.791Z,0
2018-06-08T01:16:18.456Z,0
2018-06-08T01:17:20.096Z,0
2018-06-08T01:18:21.761Z,0
2018-06-08T01:19:23.425Z,0
2018-06-08T01:20:25.082Z,0
2018-06-08T01:21:26.738Z,0
2018-06-08T01:22:28.397Z,0
2018-06-08T01:23:30.064Z,0
2018-06-08T01:24:31.719Z,0
2018-06-08T01:25:33.369Z,0
2018-06-08T01:26:35.048Z,0
2018-06-08T01:27:36.723Z,0
2018-06-08T01:28:38.411Z,0
2018-06-08T01:29:40.073Z,0
2018-06-08T01:30:41.730Z,0
2018-06-08T01:31:43.389Z,0
2018-06-08T01:32:45.052Z,0
2018-06-08T01:33:46.710Z,0
2018-06-08T01:34:48.370Z,0
2018-06-08T01:35:50.073Z,0
2018-06-08T01:36:51.687Z,0
2018-06-08T01:37:53.341Z,0
2018-06-08T01:38:55.029Z,0
2018-06-08T01:39:56.677Z,0
2018-06-08T01:40:58.339Z,0
2018-06-08T01:42:00.014Z,0
2018-06-08T01:43:01.660Z,0
2018-06-08T01:44:03.326Z,0
2018-06-08T01:45:04.982Z,0
2018-06-08T01:46:06.662Z,0
2018-06-08T01:47:08.322Z,0
2018-06-08T01:48:09.979Z,0
2018-06-08T01:49:11.643Z,0
2018-06-08T01:50:13.299Z,0
2018-06-08T01:51:14.966Z,0
2018-06-08T01:52:16.658Z,0
2018-06-08T01:53:18.289Z,0
2018-06-08T01:54:19.962Z,0
2018-06-08T01:55:21.618Z,0
2018-06-08T02:01:40.144Z,0
2018-06-08T02:02:41.796Z,0
2018-06-08T02:03:43.456Z,0
2018-06-08T02:04:45.116Z,0
2018-06-08T02:05:46.779Z,0
2018-06-08T02:06:48.425Z,0
2018-06-08T02:07:50.091Z,0
2018-06-08T02:08:51.744Z,0
2018-06-08T02:09:53.405Z,0
2018-06-08T02:10:55.054Z,0
2018-06-08T02:11:56.718Z,0
2018-06-08T02:12:58.370Z,0
2018-06-08T02:14:00.038Z,0
2018-06-08T02:15:01.696Z,0
2018-06-08T02:16:03.349Z,0
2018-06-08T02:17:05.001Z,0
2018-06-08T02:18:06.667Z,0
2018-06-08T02:19:08.327Z,0
2018-06-08T02:20:09.989Z,0
2018-06-08T02:21:11.663Z,0
2018-06-08T02:22:13.321Z,0
2018-06-08T02:23:14.982Z,0
2018-06-08T02:24:16.648Z,0
2018-06-08T02:25:18.297Z,0
2018-06-08T02:26:19.950Z,0
2018-06-08T02:27:21.611Z,0
2018-06-08T02:28:23.263Z,0
2018-06-08T02:29:24.917Z,0
2018-06-08T02:30:26.573Z,0
2018-06-08T02:31:28.220Z,0
2018-06-08T02:32:29.875Z,0
2018-06-08T02:33:31.550Z,0
2018-06-08T02:34:33.188Z,0
2018-06-08T02:35:34.855Z,0
2018-06-08T02:36:36.520Z,0
2018-06-08T02:37:38.214Z,0
2018-06-08T02:38:39.870Z,0
2018-06-08T02:39:41.522Z,0
2018-06-08T02:40:43.169Z,0
2018-06-08T02:41:44.826Z,0
2018-06-08T02:42:46.487Z,0
2018-06-08T02:43:48.143Z,0
2018-06-08T02:44:49.810Z,0
2018-06-08T02:45:51.456Z,0
2018-06-08T02:46:53.114Z,0
2018-06-08T02:47:54.779Z,0
2018-06-08T02:48:56.447Z,0
2018-06-08T02:49:58.105Z,0
2018-06-08T02:50:59.762Z,0
2018-06-08T02:52:01.424Z,0
2018-06-08T02:53:03.084Z,0
2018-06-08T02:54:04.744Z,0
2018-06-08T02:55:06.401Z,0
2018-06-08T02:56:08.054Z,0
2018-06-08T02:57:09.722Z,0
2018-06-08T02:58:11.379Z,0
2018-06-08T02:59:13.041Z,0
2018-06-08T03:00:14.701Z,0
2018-06-08T03:01:16.374Z,0
2018-06-08T03:02:18.040Z,0
2018-06-08T03:03:19.702Z,0
2018-06-08T03:04:21.367Z,0
2018-06-08T03:05:23.068Z,0
2018-06-08T03:06:24.694Z,0
2018-06-08T03:07:26.358Z,0
2018-06-08T03:08:40.027Z,0
2018-06-08T03:09:41.679Z,0
2018-06-08T03:10:43.331Z,5
2018-06-08T03:11:45.029Z,5
2018-06-08T03:12:46.662Z,5
2018-06-08T03:13:48.338Z,5
2018-06-08T03:14:50.007Z,5
2018-06-08T03:15:51.662Z,5
2018-06-08T03:16:53.326Z,5
2018-06-08T03:17:54.986Z,5
2018-06-08T03:18:56.644Z,10
2018-06-08T03:19:58.304Z,10
2018-06-08T03:20:59.972Z,10
2018-06-08T03:22:01.643Z,10
2018-06-08T03:23:03.299Z,10
2018-06-08T03:24:04.958Z,15
2018-06-08T03:25:06.620Z,15
2018-06-08T03:26:08.278Z,15
2018-06-08T03:27:09.942Z,15
2018-06-08T03:28:11.600Z,15
2018-06-08T03:29:13.267Z,20
2018-06-08T03:30:14.941Z,20
2018-06-08T03:31:16.605Z,25
2018-06-08T03:32:18.269Z,25
2018-06-08T03:33:19.971Z,30
2018-06-08T03:34:21.630Z,35
2018-06-08T03:35:23.293Z,40
2018-06-08T03:36:24.955Z,45
2018-06-08T03:37:26.625Z,50
2018-06-08T03:38:28.293Z,55
2018-06-08T03:39:33.349Z,60
2018-06-08T03:40:34.409Z,65
2018-06-08T03:41:36.063Z,70
2018-06-08T03:42:37.731Z,75
2018-06-08T03:43:39.402Z,75
2018-06-08T03:44:41.061Z,80
2018-06-08T03:45:42.738Z,85
2018-06-08T03:46:44.406Z,85
2018-06-08T03:47:46.067Z,85
2018-06-08T03:48:47.737Z,90
2018-06-08T03:49:49.393Z,90
2018-06-08T03:50:51.064Z,90
2018-06-08T03:51:52.737Z,95
2018-06-08T03:52:54.398Z,95
2018-06-08T03:53:56.059Z,95
2018-06-08T03:54:57.734Z,100
2018-06-08T03:55:59.451Z,100
2018-06-08T03:57:01.058Z,105
2018-06-08T03:58:02.731Z,105
2018-06-08T03:59:04.400Z,110
2018-06-08T04:00:06.064Z,110
2018-06-08T04:01:07.723Z,115
2018-06-08T04:02:09.391Z,115
2018-06-08T04:03:11.047Z,115
2018-06-08T04:04:12.717Z,115
2018-06-08T04:05:14.382Z,115
2018-06-08T04:06:16.054Z,110
2018-06-08T04:07:17.724Z,105
2018-06-08T04:08:19.387Z,105
2018-06-08T04:09:21.046Z,100
2018-06-08T04:10:22.717Z,95
2018-06-08T04:11:24.379Z,90
2018-06-08T04:12:26.049Z,90
2018-06-08T04:13:27.721Z,90
2018-06-08T04:14:29.376Z,85
2018-06-08T04:15:31.075Z,85
2018-06-08T04:16:32.785Z,85
2018-06-08T04:17:34.442Z,85
2018-06-08T04:18:36.112Z,80
2018-06-08T04:19:37.804Z,80
2018-06-08T04:20:39.426Z,80
2018-06-08T04:21:41.090Z,80
2018-06-08T04:22:42.755Z,80
2018-06-08T04:23:44.420Z,80
2018-06-08T04:24:46.081Z,80
2018-06-08T04:25:47.796Z,80
2018-06-08T04:26:49.417Z,80
2018-06-08T04:27:51.084Z,80
2018-06-08T04:28:52.758Z,80
2018-06-08T04:29:54.417Z,80
2018-06-08T04:30:56.084Z,85
2018-06-08T04:31:57.746Z,85
2018-06-08T04:32:59.444Z,85
2018-06-08T04:34:01.105Z,85
2018-06-08T04:35:02.761Z,85
2018-06-08T04:36:04.424Z,90
2018-06-08T04:37:06.084Z,90
2018-06-08T04:38:07.742Z,90
2018-06-08T04:39:09.407Z,90
2018-06-08T04:40:11.099Z,95
2018-06-08T04:41:12.775Z,95
2018-06-08T04:42:14.446Z,100
2018-06-08T04:43:16.109Z,105
2018-06-08T04:44:17.777Z,105
2018-06-08T04:45:19.453Z,110
2018-06-08T04:46:21.142Z,110
2018-06-08T04:47:22.806Z,110
2018-06-08T04:48:24.466Z,115
2018-06-08T04:49:26.180Z,115
2018-06-08T04:50:27.837Z,115
2018-06-08T04:51:29.502Z,115
2018-06-08T04:52:31.170Z,120
2018-06-08T04:53:32.840Z,120
2018-06-08T04:54:34.508Z,125
2018-06-08T04:55:36.173Z,125
2018-06-08T04:56:37.862Z,130
2018-06-08T04:57:39.538Z,135
2018-06-08T04:58:41.199Z,140
2018-06-08T04:59:42.881Z,145
2018-06-08T05:00:44.569Z,150
2018-06-08T05:01:46.230Z,155
2018-06-08T05:02:47.897Z,160
2018-06-08T05:03:49.569Z,170
2018-06-08T05:04:51.229Z,175
2018-06-08T05:05:52.890Z,180
2018-06-08T05:06:54.565Z,190
2018-06-08T05:07:56.235Z,200
2018-06-08T05:08:57.876Z,210
2018-06-08T05:09:59.557Z,220
2018-06-08T05:11:01.227Z,225
2018-06-08T05:12:02.889Z,225
2018-06-08T05:13:04.538Z,225
2018-06-08T05:14:06.264Z,225
2018-06-08T05:15:07.938Z,220
2018-06-08T05:16:09.619Z,215
2018-06-08T05:17:11.279Z,210
2018-06-08T05:18:12.941Z,210
2018-06-08T05:19:14.643Z,210
2018-06-08T05:20:16.305Z,215
2018-06-08T05:21:17.971Z,215
2018-06-08T05:22:19.637Z,220
2018-06-08T05:23:21.307Z,220
2018-06-08T05:24:22.993Z,225
2018-06-08T05:25:24.653Z,225
2018-06-08T05:26:26.333Z,225
2018-06-08T05:27:28.009Z,220
2018-06-08T05:28:29.674Z,215
2018-06-08T05:29:31.353Z,205
2018-06-08T05:30:33.027Z,200
2018-06-08T05:31:34.692Z,195
2018-06-08T05:32:36.357Z,195
2018-06-08T05:33:38.057Z,195
2018-06-08T05:34:39.715Z,195
2018-06-08T05:35:41.383Z,200
2018-06-08T05:36:43.050Z,205
2018-06-08T05:37:44.713Z,205
2018-06-08T05:38:46.376Z,215
2018-06-08T05:39:48.088Z,220
2018-06-08T05:40:49.802Z,235
2018-06-08T05:41:51.473Z,245
2018-06-08T05:42:53.135Z,265
2018-06-08T05:43:54.805Z,285
2018-06-08T05:44:56.472Z,315
2018-06-08T05:45:58.172Z,340
2018-06-08T05:46:59.843Z,370
2018-06-08T05:48:01.521Z,390
2018-06-08T05:49:03.227Z,410
2018-06-08T05:50:04.918Z,425
2018-06-08T05:51:06.593Z,440
2018-06-08T05:52:08.344Z,440
2018-06-08T05:53:10.047Z,440
2018-06-08T05:54:11.735Z,440
2018-06-08T05:55:13.406Z,440
2018-06-08T06:01:08.404Z,445
2018-06-08T06:02:10.038Z,440
2018-06-08T06:03:11.712Z,445
2018-06-08T06:04:13.393Z,450
2018-06-08T06:05:15.054Z,455
2018-06-08T06:06:16.729Z,465
2018-06-08T06:07:18.391Z,470
2018-06-08T06:08:20.062Z,475
2018-06-08T06:09:21.741Z,485
2018-06-08T06:10:23.407Z,490
2018-06-08T06:11:25.067Z,500
2018-06-08T06:12:26.760Z,515
2018-06-08T06:13:28.406Z,525
2018-06-08T06:14:30.105Z,535
2018-06-08T06:15:31.803Z,550
2018-06-08T06:16:33.481Z,565
2018-06-08T06:17:35.155Z,575
2018-06-08T06:18:36.849Z,585
2018-06-08T06:19:38.546Z,590
2018-06-08T06:20:40.220Z,600
2018-06-08T06:21:41.894Z,610
2018-06-08T06:22:43.557Z,620
2018-06-08T06:23:45.263Z,635
2018-06-08T06:24:46.945Z,640
2018-06-08T06:25:48.765Z,645
2018-06-08T06:26:50.479Z,650
2018-06-08T06:27:52.254Z,660
2018-06-08T06:28:53.925Z,670
2018-06-08T06:29:55.597Z,685
2018-06-08T06:30:57.266Z,700
2018-06-08T06:31:58.941Z,710
2018-06-08T06:33:00.611Z,730
2018-06-08T06:34:02.293Z,730
2018-06-08T06:35:03.961Z,745
2018-06-08T06:36:05.637Z,740
2018-06-08T06:37:07.321Z,745
2018-06-08T06:38:08.988Z,730
2018-06-08T06:39:10.648Z,725
2018-06-08T06:40:12.323Z,715
2018-06-08T06:41:13.988Z,710
2018-06-08T06:42:15.698Z,705
2018-06-08T06:43:17.368Z,710
2018-06-08T06:44:19.040Z,715
2018-06-08T06:45:20.746Z,730
2018-06-08T06:46:22.591Z,745
2018-06-08T06:47:24.259Z,755
2018-06-08T06:48:25.929Z,760
2018-06-08T06:49:27.596Z,765
2018-06-08T06:50:29.266Z,770
2018-06-08T06:51:30.967Z,775
2018-06-08T06:52:32.714Z,775
2018-06-08T06:53:34.391Z,775
2018-06-08T06:54:36.068Z,770
2018-06-08T06:55:37.736Z,770
2018-06-08T06:56:39.418Z,775
2018-06-08T06:57:41.093Z,760
2018-06-08T06:58:42.781Z,745
2018-06-08T06:59:44.451Z,725
2018-06-08T07:00:46.136Z,710
2018-06-08T07:01:47.816Z,695
2018-06-08T07:02:49.483Z,685
2018-06-08T07:03:51.163Z,685
2018-06-08T07:04:52.838Z,685
2018-06-08T07:05:54.504Z,690
2018-06-08T07:06:56.167Z,710
2018-06-08T07:07:57.839Z,725
2018-06-08T07:08:59.511Z,765
2018-06-08T07:10:01.182Z,730
2018-06-08T07:11:02.867Z,675
2018-06-08T07:12:04.540Z,645
2018-06-08T07:13:06.206Z,620
2018-06-08T07:14:07.881Z,600
2018-06-08T07:15:09.553Z,580
2018-06-08T07:16:11.227Z,555
2018-06-08T07:17:12.901Z,540
2018-06-08T07:18:14.579Z,525
2018-06-08T07:19:16.244Z,515
2018-06-08T07:20:17.917Z,510
2018-06-08T07:21:19.594Z,500
2018-06-08T07:22:21.262Z,500
2018-06-08T07:23:22.923Z,505
2018-06-08T07:24:24.616Z,515
2018-06-08T07:25:26.275Z,540
2018-06-08T07:26:27.951Z,575
2018-06-08T07:27:29.606Z,620
2018-06-08T07:28:31.276Z,635
2018-06-08T07:29:32.967Z,650
2018-06-08T07:30:34.647Z,650
2018-06-08T07:31:36.391Z,650
2018-06-08T07:32:37.973Z,650
2018-06-08T07:33:39.637Z,655
2018-06-08T07:34:41.894Z,675
2018-06-08T07:35:43.564Z,705
2018-06-08T07:36:45.229Z,730
2018-06-08T07:37:46.901Z,760
2018-06-08T07:38:48.585Z,785
2018-06-08T07:39:50.334Z,800
2018-06-08T07:40:51.999Z,810
2018-06-08T07:41:53.666Z,820
2018-06-08T07:42:55.344Z,820
2018-06-08T07:43:57.034Z,815
2018-06-08T07:44:58.720Z,795
2018-06-08T07:46:00.408Z,770
2018-06-08T07:47:02.066Z,735
2018-06-08T07:48:03.738Z,695
2018-06-08T07:49:05.500Z,660
2018-06-08T07:50:07.182Z,615
2018-06-08T07:51:08.861Z,570
2018-06-08T07:52:10.531Z,530
2018-06-08T07:53:12.194Z,495
2018-06-08T07:54:13.859Z,470
2018-06-08T07:55:15.527Z,445
2018-06-08T07:56:17.245Z,425
2018-06-08T07:57:18.912Z,410
2018-06-08T07:58:20.599Z,400
2018-06-08T07:59:22.276Z,385
2018-06-08T08:00:23.944Z,375
2018-06-08T08:01:25.608Z,375
2018-06-08T08:02:27.278Z,370
2018-06-08T08:03:28.946Z,365
2018-06-08T08:04:30.621Z,355
2018-06-08T08:05:32.296Z,345
2018-06-08T08:06:33.967Z,340
2018-06-08T08:07:35.669Z,335
2018-06-08T08:08:37.337Z,335
2018-06-08T08:09:39.004Z,335
2018-06-08T08:10:40.686Z,345
2018-06-08T08:11:42.350Z,355
2018-06-08T08:12:44.079Z,370
2018-06-08T08:13:45.691Z,385
2018-06-08T08:14:47.396Z,405
2018-06-08T08:15:49.064Z,435
2018-06-08T08:16:50.714Z,470
2018-06-08T08:17:52.403Z,505
2018-06-08T08:18:54.063Z,555
2018-06-08T08:19:55.723Z,600
2018-06-08T08:20:57.405Z,655
2018-06-08T08:21:59.075Z,715
2018-06-08T08:23:00.754Z,750
2018-06-08T08:24:02.411Z,790
2018-06-08T08:25:04.078Z,815
2018-06-08T08:26:05.871Z,815
2018-06-08T08:27:07.528Z,805
2018-06-08T08:28:09.213Z,795
2018-06-08T08:29:10.883Z,770
2018-06-08T08:30:12.556Z,750
2018-06-08T08:31:14.238Z,735
2018-06-08T08:32:15.930Z,725
2018-06-08T08:33:17.589Z,715
2018-06-08T08:34:19.352Z,705
2018-06-08T08:35:20.894Z,700
2018-06-08T08:36:22.570Z,700
2018-06-08T08:37:24.313Z,710
2018-06-08T08:38:26.052Z,735
2018-06-08T08:39:27.730Z,780
2018-06-08T08:40:29.445Z,820
2018-06-08T08:41:31.112Z,865
2018-06-08T08:42:32.779Z,910
2018-06-08T08:43:34.442Z,975
2018-06-08T08:44:36.130Z,1075
2018-06-08T08:45:37.843Z,1150
2018-06-08T08:46:39.501Z,1275
2018-06-08T08:47:41.176Z,1405
2018-06-08T08:48:42.798Z,1615
2018-06-08T08:49:44.477Z,2030
2018-06-08T08:50:46.164Z,1715
2018-06-08T08:51:47.867Z,1730
2018-06-08T08:52:49.530Z,1640
2018-06-08T08:53:51.236Z,1525
2018-06-08T08:54:52.910Z,1480
2018-06-08T08:55:54.577Z,1430
2018-06-08T08:56:56.273Z,1405
2018-06-08T08:57:57.897Z,1390
2018-06-08T08:58:59.574Z,1385
2018-06-08T09:00:01.256Z,1385
2018-06-08T09:01:02.931Z,1400
2018-06-08T09:02:04.606Z,1410
2018-06-08T09:03:06.323Z,1435
2018-06-08T09:04:08.002Z,1460
2018-06-08T09:05:09.676Z,1490
2018-06-08T09:06:11.353Z,1510
2018-06-08T09:07:13.061Z,1545
2018-06-08T09:08:14.734Z,1670
2018-06-08T09:09:16.409Z,1935
2018-06-08T09:10:18.084Z,1745
2018-06-08T09:11:19.756Z,2400
2018-06-08T09:12:21.440Z,1870
2018-06-08T09:13:23.110Z,1805
2018-06-08T09:14:24.782Z,1760
2018-06-08T09:15:26.493Z,1780
2018-06-08T09:16:28.167Z,1925
2018-06-08T09:17:29.847Z,1740
2018-06-08T09:18:31.524Z,1795
2018-06-08T09:19:33.219Z,1850
2018-06-08T09:20:34.922Z,1795
2018-06-08T09:21:36.588Z,1905
2018-06-08T09:22:38.286Z,2035
2018-06-08T09:23:40.012Z,2100
2018-06-08T09:24:41.701Z,1935
2018-06-08T09:25:43.375Z,1865
2018-06-08T09:26:45.064Z,1780
2018-06-08T09:27:46.748Z,1730
2018-06-08T09:28:48.417Z,1705
2018-06-08T09:29:50.100Z,1730
2018-06-08T09:30:51.782Z,1745
2018-06-08T09:31:53.489Z,1675
2018-06-08T09:32:55.163Z,1630
2018-06-08T09:33:56.851Z,1605
2018-06-08T09:34:58.528Z,1660
2018-06-08T09:36:00.212Z,1610
2018-06-08T09:37:01.893Z,1605
2018-06-08T09:38:03.575Z,1660
2018-06-08T09:39:05.261Z,2135
2018-06-08T09:40:06.943Z,1690
2018-06-08T09:41:08.621Z,1775
2018-06-08T09:42:10.319Z,1660
2018-06-08T09:43:12.003Z,1650
2018-06-08T09:44:13.702Z,1575
2018-06-08T09:45:15.382Z,1615
2018-06-08T09:46:17.089Z,1720
2018-06-08T09:47:18.748Z,3000
2018-06-08T09:48:20.431Z,2060
2018-06-08T09:49:22.104Z,2000
2018-06-08T09:50:23.787Z,3105
2018-06-08T09:51:25.462Z,2185
2018-06-08T09:52:27.141Z,1670
2018-06-08T09:53:28.818Z,1590
2018-06-08T09:54:30.504Z,1555
2018-06-08T09:55:32.178Z,1500
2018-06-08T10:01:56.864Z,1505
2018-06-08T10:02:58.542Z,1525
2018-06-08T10:04:00.209Z,1465
2018-06-08T10:05:01.906Z,1450
2018-06-08T10:06:05.461Z,1470
2018-06-08T10:07:07.141Z,1605
2018-06-08T10:08:08.842Z,1605
2018-06-08T10:09:10.494Z,1620
2018-06-08T10:10:12.176Z,1700
2018-06-08T10:11:13.854Z,1730
2018-06-08T10:12:15.683Z,1775
2018-06-08T10:13:17.372Z,1750
2018-06-08T10:14:19.070Z,1915
2018-06-08T10:15:20.770Z,1800
2018-06-08T10:16:22.443Z,1775
2018-06-08T10:17:24.385Z,1735
2018-06-08T10:18:26.057Z,1645
2018-06-08T10:19:27.737Z,1605
2018-06-08T10:20:29.414Z,1535
2018-06-08T10:21:34.982Z,1485
2018-06-08T10:22:41.056Z,1440
2018-06-08T10:23:42.958Z,1430
2018-06-08T10:24:44.668Z,1405
2018-06-08T10:25:46.445Z,1415
2018-06-08T10:26:48.124Z,1445
2018-06-08T10:27:49.835Z,1475
2018-06-08T10:28:51.516Z,1505
2018-06-08T10:29:53.555Z,1540
2018-06-08T10:30:55.522Z,1605
2018-06-08T10:31:57.263Z,1705
2018-06-08T10:32:59.051Z,1610
2018-06-08T10:34:00.787Z,1620
2018-06-08T10:35:02.465Z,1695
2018-06-08T10:36:04.164Z,1585
2018-06-08T10:37:05.856Z,1590
2018-06-08T10:38:07.541Z,1540
2018-06-08T10:39:09.215Z,1520
2018-06-08T10:40:10.907Z,1525
2018-06-08T10:41:12.613Z,1550
2018-06-08T10:42:14.308Z,1570
2018-06-08T10:43:16.006Z,1620
2018-06-08T10:44:17.725Z,1675
2018-06-08T10:45:19.409Z,1825
2018-06-08T10:46:21.098Z,2005
2018-06-08T10:47:22.773Z,2010
2018-06-08T10:48:24.447Z,1870
2018-06-08T10:49:26.136Z,1985
2018-06-08T10:50:27.832Z,1870
2018-06-08T10:51:29.531Z,1905
2018-06-08T10:52:31.206Z,1935
2018-06-08T10:53:32.887Z,2275
2018-06-08T10:54:34.576Z,2420
2018-06-08T10:55:36.237Z,2205
2018-06-08T10:56:37.983Z,3395
2018-06-08T10:57:39.656Z,2605
2018-06-08T10:58:41.329Z,3715
2018-06-08T10:59:43.042Z,2910
2018-06-08T11:00:46.490Z,3550
2018-06-08T11:01:48.393Z,4520
2018-06-08T11:02:50.716Z,4325
2018-06-08T11:03:52.414Z,4375
2018-06-08T11:04:54.111Z,4305
2018-06-08T11:05:55.802Z,4240
2018-06-08T11:06:57.588Z,4135
2018-06-08T11:07:59.243Z,2755
2018-06-08T11:09:00.981Z,2560
2018-06-08T11:10:02.683Z,1725
2018-06-08T11:11:04.383Z,1690
2018-06-08T11:12:06.111Z,1710
2018-06-08T11:13:07.787Z,2080
2018-06-08T11:14:09.477Z,1915
2018-06-08T11:15:11.153Z,1970
2018-06-08T11:16:12.840Z,1875
2018-06-08T11:17:14.537Z,1750
2018-06-08T11:18:16.213Z,1950
2018-06-08T11:19:17.930Z,1885
2018-06-08T11:20:19.607Z,1925
2018-06-08T11:21:21.296Z,1720
2018-06-08T11:22:22.969Z,1600
2018-06-08T11:23:24.645Z,1460
2018-06-08T11:24:26.328Z,1340
2018-06-08T11:25:28.007Z,1225
2018-06-08T11:26:29.692Z,1135
2018-06-08T11:27:31.365Z,1070
2018-06-08T11:28:33.044Z,995
2018-06-08T11:29:34.720Z,930
2018-06-08T11:30:36.397Z,880
2018-06-08T11:31:38.109Z,825
2018-06-08T11:32:39.790Z,765
2018-06-08T11:33:41.473Z,730
2018-06-08T11:34:43.157Z,715
2018-06-08T11:35:44.838Z,690
2018-06-08T11:36:47.260Z,660
2018-06-08T11:37:49.533Z,645
2018-06-08T11:38:51.543Z,635
2018-06-08T11:39:53.292Z,635
2018-06-08T11:40:55.023Z,635
2018-06-08T11:41:56.752Z,650
2018-06-08T11:42:58.451Z,685
2018-06-08T11:44:00.986Z,690
2018-06-08T11:45:02.705Z,705
2018-06-08T11:46:04.444Z,710
2018-06-08T11:47:06.255Z,725
2018-06-08T11:48:07.971Z,740
2018-06-08T11:49:09.742Z,755
2018-06-08T11:50:12.522Z,780
2018-06-08T11:51:14.276Z,820
2018-06-08T11:52:16.022Z,860
2018-06-08T11:53:17.790Z,915
2018-06-08T11:54:19.463Z,995
2018-06-08T11:55:21.275Z,1115
2018-06-08T11:56:23.006Z,1245
2018-06-08T11:57:24.783Z,1350
2018-06-08T11:58:26.498Z,1515
2018-06-08T11:59:28.243Z,1590
2018-06-08T12:00:29.970Z,1470
2018-06-08T12:01:31.736Z,1655
2018-06-08T12:02:33.499Z,1540
2018-06-08T12:03:35.215Z,1435
2018-06-08T12:04:36.961Z,1375
2018-06-08T12:05:38.780Z,1330
2018-06-08T12:06:40.567Z,1290
2018-06-08T12:07:42.355Z,1255
2018-06-08T12:08:44.103Z,1225
2018-06-08T12:09:45.899Z,1210
2018-06-08T12:10:47.629Z,1180
2018-06-08T12:11:49.425Z,1145
2018-06-08T12:12:51.194Z,1125
2018-06-08T12:13:52.939Z,1095
2018-06-08T12:14:54.880Z,1060
2018-06-08T12:15:56.647Z,1030
2018-06-08T12:16:58.429Z,1000
2018-06-08T12:18:02.673Z,965
2018-06-08T12:19:04.865Z,940
2018-06-08T12:20:07.911Z,930
2018-06-08T12:21:09.745Z,925
2018-06-08T12:22:11.548Z,925
2018-06-08T12:23:13.366Z,900
2018-06-08T12:24:16.175Z,875
2018-06-08T12:25:17.920Z,860
2018-06-08T12:26:19.720Z,835
2018-06-08T12:27:21.484Z,795
2018-06-08T12:28:23.207Z,755
2018-06-08T12:29:25.663Z,720
2018-06-08T12:30:28.606Z,685
2018-06-08T12:31:30.376Z,670
2018-06-08T12:32:32.082Z,660
2018-06-08T12:33:34.176Z,650
2018-06-08T12:34:38.088Z,625
2018-06-08T12:35:39.663Z,605
2018-06-08T12:36:41.442Z,600
2018-06-08T12:37:43.205Z,600
2018-06-08T12:38:44.945Z,615
2018-06-08T12:39:48.424Z,640
2018-06-08T12:40:50.168Z,650
2018-06-08T12:41:51.890Z,650
2018-06-08T12:42:53.630Z,630
2018-06-08T12:43:55.552Z,605
2018-06-08T12:44:58.391Z,570
2018-06-08T12:46:00.123Z,555
2018-06-08T12:47:01.920Z,550
2018-06-08T12:48:03.667Z,545
2018-06-08T12:49:05.378Z,545
2018-06-08T12:50:09.565Z,545
2018-06-08T12:51:11.344Z,550
2018-06-08T12:52:13.124Z,545
2018-06-08T12:53:14.827Z,535
2018-06-08T12:54:18.090Z,515
2018-06-08T12:55:19.835Z,495
2018-06-08T12:56:21.588Z,470
2018-06-08T12:57:23.408Z,445
2018-06-08T12:58:25.122Z,425
2018-06-08T12:59:26.865Z,405
2018-06-08T13:00:28.608Z,390
2018-06-08T13:01:30.332Z,380
2018-06-08T13:02:32.089Z,350
2018-06-08T13:03:33.837Z,325
2018-06-08T13:04:35.576Z,320
2018-06-08T13:05:37.365Z,320
2018-06-08T13:06:39.151Z,315
2018-06-08T13:07:40.963Z,315
2018-06-08T13:08:42.750Z,320
2018-06-08T13:09:44.495Z,320
2018-06-08T13:10:47.853Z,320
2018-06-08T13:11:49.595Z,325
2018-06-08T13:12:51.353Z,335
2018-06-08T13:13:54.359Z,355
2018-06-08T13:14:56.550Z,350
2018-06-08T13:15:59.566Z,350
2018-06-08T13:17:01.088Z,340
2018-06-08T13:18:02.885Z,335
2018-06-08T13:19:04.704Z,325
2018-06-08T13:20:08.574Z,325
2018-06-08T13:21:10.356Z,325
2018-06-08T13:22:12.132Z,330
2018-06-08T13:23:13.925Z,345
2018-06-08T13:24:17.788Z,370
2018-06-08T13:25:19.517Z,390
2018-06-08T13:26:21.285Z,410
2018-06-08T13:27:23.080Z,425
2018-06-08T13:28:24.862Z,445
2018-06-08T13:29:27.750Z,465
2018-06-08T13:30:29.484Z,485
2018-06-08T13:31:31.257Z,505
2018-06-08T13:32:33.075Z,520
2018-06-08T13:33:34.842Z,540
2018-06-08T13:34:39.309Z,550
2018-06-08T13:35:41.088Z,580
2018-06-08T13:36:42.877Z,635
2018-06-08T13:37:44.602Z,645
2018-06-08T13:38:48.136Z,670
2018-06-08T13:39:49.708Z,700
2018-06-08T13:40:51.468Z,730
2018-06-08T13:41:55.262Z,790
2018-06-08T13:43:00.092Z,800
2018-06-08T13:44:01.860Z,850
2018-06-08T13:45:03.640Z,885
2018-06-08T13:46:05.461Z,870
2018-06-08T13:47:09.356Z,840
2018-06-08T13:48:11.589Z,830
2018-06-08T13:49:13.354Z,835
2018-06-08T13:50:15.155Z,850
2018-06-08T13:51:20.541Z,855
2018-06-08T13:52:22.108Z,850
2018-06-08T13:53:24.397Z,850
2018-06-08T13:54:26.257Z,835
2018-06-08T13:55:29.831Z,740
2018-06-08T14:01:30.929Z,730
2018-06-08T14:02:32.607Z,755
2018-06-08T14:03:34.271Z,900
2018-06-08T14:04:35.947Z,735
2018-06-08T14:05:38.318Z,705
2018-06-08T14:06:40.175Z,730
2018-06-08T14:07:41.848Z,715
2018-06-08T14:08:43.520Z,720
2018-06-08T14:09:45.204Z,760
2018-06-08T14:10:47.222Z,1400
2018-06-08T14:11:50.016Z,1240
2018-06-08T14:12:51.674Z,965
2018-06-08T14:13:53.345Z,855
2018-06-08T14:14:55.011Z,810
2018-06-08T14:15:56.708Z,785
2018-06-08T14:16:58.850Z,785
2018-06-08T14:18:01.030Z,820
2018-06-08T14:19:02.699Z,875
2018-06-08T14:20:04.369Z,950
2018-06-08T14:21:06.042Z,1015
2018-06-08T14:22:07.738Z,1075
2018-06-08T14:23:11.697Z,1160
2018-06-08T14:24:13.377Z,1235
2018-06-08T14:25:15.044Z,1295
2018-06-08T14:26:16.791Z,1325
2018-06-08T14:27:18.474Z,1315
2018-06-08T14:28:21.783Z,1295
2018-06-08T14:29:23.356Z,1285
2018-06-08T14:30:25.078Z,1265
2018-06-08T14:31:26.756Z,1220
2018-06-08T14:32:28.465Z,1185
2018-06-08T14:33:30.127Z,1160
2018-06-08T14:34:31.840Z,1210
2018-06-08T14:35:33.538Z,1270
2018-06-08T14:36:35.198Z,1435
2018-06-08T14:37:36.889Z,1480
2018-06-08T14:38:38.597Z,1875
2018-06-08T14:39:40.270Z,1475